• Join FlightAware (Why Join?)
  • Login
  • US Flag 
07:05AM EDT


 

Airport Tracker/Info


-or-


 

Live Flight TrackerFlight Track Log ✈ ASH3732 ✈ 14-Jul-2013 ✈ KIAD - KMCI

Flight Track Log - Related Links

Times and Time Zones

All times are in EDT time to prevent confusion due to time zone crossing. See the ASH3732 flight status page for this flight to view local times or setup timezone preferences in your user account.

Time Position Orientation Groundspeed Altitude Reporting Facility
EDT Latitude Longitude Course Direction KTS MPH feet Rate Location/Type
08:48AM 38.9167 -77.5667 270° West 222 255 3,300  Level Potomac TRACON
08:50AM 38.8789 -77.6556 241° Southwest 258 297 6,200 1,680 Climbing Washington Center
08:51AM 38.8442 -77.7425 243° Southwest 274 315 7,000 1,260 Climbing Washington Center
08:52AM 38.8092 -77.8347 244° Southwest 279 321 8,800 1,680 Climbing Washington Center
08:53AM 38.7864 -77.9325 253° West 285 328 10,400 1,380 Climbing Washington Center
08:54AM 38.8500 -78.2879 270° West  Level FlightAware Approximate
08:54AM 38.8172 -78.0589 287° West 311 358 11,600  Level Washington Center
08:55AM 38.8500 -78.1906 288° West 352 405 13,100 1,500 Climbing Washington Center
08:56AM 38.8531 -78.3347 272° West 382 440 14,700 1,620 Climbing Washington Center
08:57AM 38.8517 -78.4811 269° West 403 464 16,400 1,680 Climbing Washington Center
08:58AM 38.8503 -78.6250 269° West 403 464 18,100 1,440 Climbing Washington Center
08:59AM 38.8483 -78.7717 269° West 403 464 19,400 1,440 Climbing Washington Center
09:00AM 38.8444 -78.9208 268° West 408 470 21,000 1,560 Climbing Washington Center
09:01AM 38.8422 -79.0672 269° West 414 476 22,500 1,440 Climbing Washington Center
09:02AM 38.8400 -79.2192 269° West 421 484 24,000 1,260 Climbing Washington Center
09:03AM 38.8394 -79.3683 270° West 426 490 25,100 1,200 Climbing Washington Center
09:04AM 38.8367 -79.5253 269° West 426 490 26,400 1,140 Climbing Washington Center
09:05AM 38.8339 -79.6692 269° West 444 511 27,400 960 Climbing Washington Center
09:06AM 38.8283 -79.8286 267° West 444 511 28,400 1,020 Climbing Washington Center
09:07AM 38.8225 -80.0283 268° West 451 519 29,700 1,020 Climbing Indianapolis Center
09:08AM 38.8169 -80.1892 268° West 452 520 30,700 960 Climbing Indianapolis Center
09:09AM 38.8136 -80.3503 269° West 453 521 31,700 960 Climbing Indianapolis Center
09:10AM 38.8094 -80.5111 268° West 452 520 32,700 960 Climbing Indianapolis Center
09:11AM 38.8042 -80.6728 268° West 455 524 33,700 1,020 Climbing Indianapolis Center
09:12AM 38.7989 -80.8339 268° West 453 521 34,800 1,020 Climbing Indianapolis Center
09:13AM 38.7947 -80.9956 268° West 453 521 35,800 540 Climbing Indianapolis Center
09:14AM 38.7892 -81.1578 268° West 457 526 36,000 60 Climbing Indianapolis Center
09:15AM 38.7831 -81.3589 268° West 472 543 36,000  Level Indianapolis Center
09:16AM 38.7756 -81.5267 267° West 487 560 36,000  Level Indianapolis Center
09:17AM 38.7697 -81.6986 268° West 497 572 36,000  Level Indianapolis Center
09:18AM 38.7622 -81.8711 267° West 492 566 36,000  Level Indianapolis Center
09:19AM 38.7553 -82.0467 267° West 497 572 36,000  Level Indianapolis Center
09:20AM 38.7478 -82.2528 267° West 489 563 36,000  Level Indianapolis Center
09:21AM 38.7397 -82.4258 267° West 489 563 36,000  Level Indianapolis Center
09:22AM 38.7336 -82.5994 267° West 488 562 36,000  Level Indianapolis Center
09:23AM 38.7247 -82.7739 266° West 492 566 36,000  Level Indianapolis Center
09:24AM 38.7172 -82.9475 267° West 490 564 36,000  Level Indianapolis Center
09:25AM 38.7097 -83.1214 267° West 489 563 36,000  Level Indianapolis Center
09:26AM 38.7014 -83.3075 267° West 488 562 36,000  Level Indianapolis Center
09:27AM 38.6919 -83.4831 266° West 489 563 36,000  Level Indianapolis Center
09:28AM 38.6833 -83.6606 266° West 493 567 36,000  Level Indianapolis Center
09:29AM 38.6742 -83.8378 266° West 495 570 36,000  Level Indianapolis Center
09:30AM 38.6656 -84.0147 266° West 495 570 36,000  Level Indianapolis Center
09:31AM 38.6556 -84.1928 266° West 496 571 36,000  Level Indianapolis Center
09:32AM 38.6533 -84.3711 269° West 498 573 36,000  Level Indianapolis Center
09:33AM 38.6650 -84.5753 274° West 500 575 36,000  Level Indianapolis Center
09:34AM 38.6747 -84.7528 274° West 501 577 36,000  Level Indianapolis Center
09:36AM 38.6867 -84.9297 275° West 501 577 36,000  Level Indianapolis Center
09:37AM 38.6950 -85.1081 273° West 503 579 36,000  Level Indianapolis Center
09:38AM 38.7044 -85.2869 274° West 504 580 36,000  Level Indianapolis Center
09:39AM 38.7147 -85.4658 274° West 506 582 36,000  Level Indianapolis Center
09:40AM 38.7231 -85.6464 273° West 508 585 36,000  Level Indianapolis Center
09:41AM 38.7314 -85.8247 273° West 504 580 36,000  Level Indianapolis Center
09:42AM 38.7425 -86.0453 274° West 511 588 36,000  Level Indianapolis Center
09:43AM 38.7503 -86.2261 273° West 508 585 36,000  Level Indianapolis Center
09:44AM 38.7581 -86.4086 273° West 514 592 36,000  Level Indianapolis Center
09:45AM 38.7658 -86.5892 273° West 513 590 36,000  Level Indianapolis Center
09:46AM 38.7731 -86.7681 273° West 507 583 36,000  Level Indianapolis Center
09:47AM 38.7803 -86.9483 273° West 509 586 36,000  Level Indianapolis Center
09:48AM 38.7881 -87.1297 273° West 511 588 36,000  Level Indianapolis Center
09:49AM 38.7950 -87.3472 272° West 512 589 36,000  Level Indianapolis Center
09:50AM 38.8014 -87.5297 273° West 514 592 36,000  Level Indianapolis Center
09:51AM 38.8067 -87.7094 272° West 508 585 36,000  Level Indianapolis Center
09:52AM 38.8122 -87.8914 272° West 511 588 36,000  Level Indianapolis Center
09:53AM 38.8178 -88.0744 272° West 512 589 36,000  Level Indianapolis Center
09:54AM 38.8211 -88.1856 272° West 512 589 36,000  Level Kansas City Center
09:55AM 38.8256 -88.3683 272° West 512 589 36,000  Level Kansas City Center
09:56AM 38.8306 -88.5517 272° West 513 590 36,000  Level Kansas City Center
09:57AM 38.8336 -88.7353 271° West 515 593 36,000  Level Kansas City Center
09:58AM 38.8383 -88.9203 272° West 518 596 36,000  Level Kansas City Center
09:59AM 38.8433 -89.1300 272° West 520 598 36,000  Level Kansas City Center
10:00AM 38.8472 -89.3294 271° West 522 601 36,000  Level Kansas City Center
10:01AM 38.8506 -89.5144 271° West 522 601 36,000  Level Kansas City Center
10:02AM 38.8522 -89.6986 271° West 524 603 36,000  Level Kansas City Center
10:03AM 38.8547 -89.8844 271° West 524 603 36,000  Level Kansas City Center
10:04AM 38.8606 -90.0661 272° West 522 601 36,000  Level Kansas City Center
10:05AM 38.9175 -90.2469 292° West 533 613 36,000  Level Kansas City Center
10:06AM 38.9772 -90.4206 294° West 544 626 36,000  Level Kansas City Center
10:07AM 39.0461 -90.6297 293° West 540 621 36,000  Level Kansas City Center
10:08AM 39.1078 -90.8025 295° West 538 619 36,000  Level Kansas City Center
10:09AM 39.1653 -90.9789 293° West 537 618 36,000  Level Kansas City Center
10:10AM 39.2233 -91.1558 293° West 538 619 36,000  Level Kansas City Center
10:11AM 39.2808 -91.3322 293° West 538 619 36,000  Level Kansas City Center
10:12AM 39.3386 -91.5100 293° West 538 619 36,000  Level Kansas City Center
10:13AM 39.4050 -91.7108 293° West 537 618 36,000  Level Kansas City Center
10:14AM 39.4622 -91.8883 293° West 537 618 36,000  Level Kansas City Center
10:15AM 39.5161 -92.0667 291° West 536 617 36,000 -120 Level Kansas City Center
10:16AM 39.5339 -92.2558 277° West 534 615 35,800 -1,080 Descending Kansas City Center
10:17AM 39.5461 -92.4472 275° West 535 616 33,900 -1,860 Descending Kansas City Center
10:18AM 39.5586 -92.6378 275° West 533 613 32,100 -1,860 Descending Kansas City Center
10:19AM 39.5708 -92.8278 275° West 531 611 30,100 -2,280 Descending Kansas City Center
10:20AM 39.5819 -93.0214 274° West 536 617 27,500 -3,360 Descending Kansas City Center
10:21AM 39.5956 -93.2319 275° West 501 577 23,300 -3,840 Descending Kansas City Center
10:22AM 39.6042 -93.4042 274° West 485 558 19,800 -3,420 Descending Kansas City Center
10:23AM 39.6139 -93.5717 274° West 474 545 16,300 -3,300 Descending Kansas City Center
10:24AM 39.6236 -93.7297 275° West 446 513 13,200 -2,220 Descending Kansas City Center
10:25AM 39.6283 -93.8697 273° West 405 466 11,800 -1,200 Descending Kansas City Center
10:26AM 39.5767 -93.9803 239° Southwest 313 360 10,700 -1,560 Descending Kansas City Center
10:27AM 39.5347 -94.0703 239° Southwest 299 344 8,700 -1,860 Descending Kansas City Center
10:28AM 39.5250 -94.1875 264° West 295 339 7,000 -1,320 Descending Kansas City Center
10:29AM 39.5150 -94.2853 262° West 287 330 6,100 -540 Descending Kansas City Center
10:30AM 39.5042 -94.3817 262° West 284 327 6,000 -300 Descending Kansas City Center
10:31AM 39.4925 -94.4978 263° West 290 334 5,500 -780 Descending Kansas City Center
10:32AM 39.4728 -94.5872 254° West 280 322 4,500 -1,020 Descending Kansas City Center
10:33AM 39.4317 -94.6694 237° Southwest 241 277 3,400 -960 Descending Kansas City Center
10:34AM 39.3906 -94.7011 211° Southwest 173 199 2,600 -840 Descending Kansas City Center
10:36AM 39.3594 -94.7094 192° South 123 142 1,800 -840 Descending Kansas City Center
10:37AM 39.3189 -94.7211 193° South 137 158 1,000 -840 Descending Kansas City Center
10:39AM 39.2976 -94.7139 270° West  Level Estimated